Time;durP1;ratioP1;P1;durP2;ratioP2;P2;SDS_P1;SDS_P2;PMS_P1;PMS_P2;Temp;Humidity;BMP_temperature;BMP_pressure;BME280_temperature;BME280_humidity;BME280_pressure;Samples;Min_cycle;Max_cycle;Signal;HPM_P1;HPM_P2
2024/04/05 00:01:05;;;;;;;0.50;0.50;;;14.70;99.90;;;;;;10478355;28;20216;-81
2024/04/05 00:06:07;;;;;;;0.60;0.60;;;14.70;99.90;;;;;;10488993;28;20657;-79
2024/04/05 00:11:11;;;;;;;0.50;0.50;;;14.60;99.90;;;;;;10488862;28;20216;-78
2024/04/05 00:16:14;;;;;;;0.60;0.60;;;14.60;99.90;;;;;;10482880;28;20726;-79
2024/04/05 00:21:16;;;;;;;0.50;0.50;;;14.50;99.90;;;;;;10488148;28;20635;-77
2024/04/05 00:26:20;;;;;;;0.50;0.50;;;14.50;99.90;;;;;;10492673;28;20200;-79
2024/04/05 00:31:22;;;;;;;0.50;0.50;;;14.50;99.90;;;;;;10495485;28;20224;-78
2024/04/05 00:36:24;;;;;;;0.50;0.50;;;14.50;99.90;;;;;;10499492;28;20185;-79
2024/04/05 00:41:28;;;;;;;0.50;0.50;;;14.60;99.90;;;;;;10496779;28;20692;-79
2024/04/05 00:46:31;;;;;;;0.50;0.50;;;14.60;99.90;;;;;;10494171;28;20258;-81
2024/04/05 00:51:33;;;;;;;0.60;0.60;;;14.60;99.90;;;;;;10492873;28;20193;-79
2024/04/05 00:56:38;;;;;;;0.60;0.60;;;14.60;99.90;;;;;;10499471;28;20216;-78
2024/04/05 01:01:41;;;;;;;0.60;0.60;;;14.70;99.90;;;;;;10495429;28;20257;-76
2024/04/05 01:06:44;;;;;;;0.50;0.50;;;14.70;99.90;;;;;;10491914;28;20236;-78
2024/04/05 01:11:56;;;;;;;0.60;0.60;;;14.70;99.90;;;;;;10512675;22;20647;-75
2024/04/05 01:16:58;;;;;;;0.60;0.60;;;14.70;99.90;;;;;;10483922;28;20465;-76
2024/04/05 01:22:01;;;;;;;0.50;0.50;;;14.60;99.90;;;;;;10486922;28;20277;-75
2024/04/05 01:27:05;;;;;;;0.40;0.40;;;14.60;99.90;;;;;;10477427;28;20236;-76
2024/04/05 01:32:07;;;;;;;0.50;0.50;;;14.50;99.90;;;;;;10488049;28;20254;-76
2024/04/05 01:37:10;;;;;;;0.50;0.50;;;14.50;99.90;;;;;;10463392;28;20654;-76
2024/04/05 01:42:14;;;;;;;0.50;0.50;;;14.50;99.90;;;;;;10480967;28;20618;-76
2024/04/05 01:47:16;;;;;;;0.70;0.70;;;14.50;99.90;;;;;;10488256;28;20674;-76
2024/04/05 01:52:19;;;;;;;0.50;0.50;;;14.50;99.90;;;;;;10474759;28;20254;-76
2024/04/05 01:57:23;;;;;;;0.70;0.70;;;14.40;99.90;;;;;;10482494;28;20623;-76
2024/04/05 02:02:25;;;;;;;0.77;0.77;;;14.50;99.90;;;;;;10487672;28;20274;-76
2024/04/05 02:07:28;;;;;;;0.80;0.80;;;14.40;99.90;;;;;;10482648;28;20224;-76
2024/04/05 02:12:32;;;;;;;0.90;0.90;;;14.40;99.90;;;;;;10486482;28;20697;-76
2024/04/05 02:17:35;;;;;;;1.00;1.00;;;14.40;99.90;;;;;;10480043;28;20693;-75
2024/04/05 02:22:37;;;;;;;0.90;0.90;;;14.30;99.90;;;;;;10451354;28;20370;-76
2024/04/05 02:27:41;;;;;;;1.00;1.00;;;14.30;99.90;;;;;;10483468;28;20552;-76
2024/04/05 02:32:43;;;;;;;1.00;1.00;;;14.30;99.90;;;;;;10478679;28;20200;-76
2024/04/05 02:37:45;;;;;;;0.90;0.90;;;14.30;99.90;;;;;;10485670;28;20701;-76
2024/04/05 02:42:49;;;;;;;0.90;0.90;;;14.30;99.90;;;;;;10486521;28;20200;-76
2024/04/05 02:47:51;;;;;;;0.90;0.90;;;14.30;99.90;;;;;;10482808;28;20235;-76
2024/04/05 02:52:54;;;;;;;0.80;0.80;;;14.30;99.90;;;;;;10487692;28;20283;-76
2024/04/05 02:57:58;;;;;;;1.00;1.00;;;14.30;99.90;;;;;;10483370;28;20289;-76
2024/04/05 03:03:00;;;;;;;0.80;0.80;;;14.30;99.90;;;;;;10488784;28;20219;-76
2024/04/05 03:08:03;;;;;;;1.10;1.10;;;14.30;99.90;;;;;;10485898;28;20224;-76
2024/04/05 03:13:07;;;;;;;1.03;1.03;;;14.20;99.90;;;;;;10487248;28;20201;-76
2024/04/05 03:18:10;;;;;;;1.00;1.00;;;14.20;99.90;;;;;;10490105;28;20221;-76
2024/04/05 03:23:12;;;;;;;0.50;0.50;;;14.20;99.90;;;;;;10474598;28;20262;-76
2024/04/05 03:28:16;;;;;;;0.90;0.90;;;14.20;99.90;;;;;;10479384;28;20225;-76
2024/04/05 03:33:18;;;;;;;0.87;0.87;;;14.10;99.90;;;;;;10474864;28;20193;-76
2024/04/05 03:38:20;;;;;;;1.20;1.20;;;14.10;99.90;;;;;;10472736;28;20274;-76
2024/04/05 03:43:24;;;;;;;1.60;1.60;;;14.00;99.90;;;;;;10485111;28;20201;-76
2024/04/05 03:48:26;;;;;;;1.30;1.30;;;13.90;99.90;;;;;;10485161;28;20217;-76
2024/04/05 03:53:29;;;;;;;1.40;1.40;;;13.90;99.90;;;;;;10481076;28;20278;-76
2024/04/05 03:58:32;;;;;;;1.00;1.00;;;13.80;99.90;;;;;;10479569;28;20277;-76
2024/04/05 04:03:35;;;;;;;1.10;1.10;;;13.80;99.90;;;;;;10468673;28;20205;-76
2024/04/05 04:08:37;;;;;;;1.27;1.27;;;13.80;99.90;;;;;;10495239;28;20232;-76
2024/04/05 04:13:41;;;;;;;1.30;1.30;;;13.70;99.90;;;;;;10496356;28;20577;-76
2024/04/05 04:18:45;;;;;;;1.40;1.40;;;13.70;99.90;;;;;;10475730;28;20719;-76
2024/04/05 04:23:48;;;;;;;0.90;0.90;;;13.70;99.90;;;;;;10466279;28;20201;-76
2024/04/05 04:28:52;;;;;;;1.40;1.40;;;13.70;99.90;;;;;;10484407;28;20266;-76
2024/04/05 04:33:55;;;;;;;1.30;1.30;;;13.60;99.90;;;;;;10464544;28;20251;-76
2024/04/05 04:38:58;;;;;;;0.50;0.50;;;13.50;99.90;;;;;;10472265;28;20217;-76
2024/04/05 04:44:03;;;;;;;1.30;1.30;;;13.50;99.90;;;;;;10490343;28;20204;-73
2024/04/05 04:49:05;;;;;;;1.30;1.30;;;13.50;99.90;;;;;;10486735;28;20671;-76
2024/04/05 04:54:08;;;;;;;1.37;1.37;;;13.40;99.90;;;;;;10484235;28;20201;-75
2024/04/05 04:59:12;;;;;;;1.20;1.20;;;13.40;99.90;;;;;;10487947;28;20216;-76
2024/04/05 05:04:14;;;;;;;1.40;1.40;;;13.30;99.90;;;;;;10488094;28;20216;-75
2024/04/05 05:09:16;;;;;;;1.30;1.30;;;13.30;99.90;;;;;;10485255;28;20221;-75
2024/04/05 05:14:20;;;;;;;1.40;1.40;;;13.30;99.90;;;;;;10490340;28;20192;-76
2024/04/05 05:19:23;;;;;;;1.40;1.40;;;13.20;99.90;;;;;;10494555;28;20572;-76
2024/04/05 05:24:25;;;;;;;1.40;1.40;;;13.20;99.90;;;;;;10486839;28;20209;-76
2024/04/05 05:29:29;;;;;;;1.30;1.30;;;13.20;99.90;;;;;;10482705;28;20228;-76
2024/04/05 05:34:31;;;;;;;1.30;1.30;;;13.10;99.90;;;;;;10485952;28;20205;-75
2024/04/05 05:39:34;;;;;;;1.07;1.07;;;13.20;99.90;;;;;;10486499;28;20270;-75
2024/04/05 05:44:38;;;;;;;1.57;1.57;;;13.10;99.90;;;;;;10488635;28;20204;-75
2024/04/05 05:49:40;;;;;;;1.50;1.50;;;13.10;99.90;;;;;;10470512;28;20748;-75
2024/04/05 05:54:43;;;;;;;1.50;1.50;;;13.10;99.90;;;;;;10478956;28;20200;-75
2024/04/05 05:59:47;;;;;;;1.40;1.40;;;13.10;99.90;;;;;;10484076;28;20228;-76
2024/04/05 06:04:49;;;;;;;1.33;1.33;;;13.10;99.90;;;;;;10482510;28;20612;-76
2024/04/05 06:09:52;;;;;;;1.37;1.37;;;13.20;99.90;;;;;;10490834;28;20232;-76
2024/04/05 06:14:56;;;;;;;1.20;1.20;;;13.20;99.90;;;;;;10474008;28;20196;-76
2024/04/05 06:19:58;;;;;;;1.30;1.30;;;13.30;99.90;;;;;;10488987;28;20604;-76
2024/04/05 06:25:01;;;;;;;1.33;1.33;;;13.40;99.90;;;;;;10482268;28;20265;-76
2024/04/05 06:30:07;;;;;;;1.00;1.00;;;13.50;99.90;;;;;;10478629;28;20709;-76
2024/04/05 06:35:10;;;;;;;1.30;1.30;;;13.60;99.90;;;;;;10475789;28;20197;-76
2024/04/05 06:40:14;;;;;;;1.30;1.30;;;13.60;99.90;;;;;;10485686;28;20211;-76
2024/04/05 06:45:17;;;;;;;1.30;1.30;;;13.70;99.90;;;;;;10486326;28;20203;-75
2024/04/05 06:50:20;;;;;;;1.20;1.20;;;13.80;99.90;;;;;;10484511;28;20274;-76
2024/04/05 06:55:22;;;;;;;0.90;0.90;;;13.90;99.90;;;;;;10486246;28;20212;-76
2024/04/05 07:00:26;;;;;;;0.90;0.90;;;14.20;99.90;;;;;;10484968;28;20220;-77
2024/04/05 07:05:28;;;;;;;0.80;0.80;;;14.40;99.90;;;;;;10486949;28;20196;-76
2024/04/05 07:10:31;;;;;;;0.97;0.97;;;14.60;99.90;;;;;;10470454;28;20293;-77
2024/04/05 07:15:38;;;;;;;1.00;1.00;;;14.90;99.90;;;;;;10490419;28;20208;-79
2024/04/05 07:20:40;;;;;;;0.83;0.83;;;15.10;99.90;;;;;;10489593;28;20224;-77
2024/04/05 07:25:43;;;;;;;1.00;1.00;;;15.20;99.90;;;;;;10470643;28;20236;-76
2024/04/05 07:30:46;;;;;;;0.60;0.60;;;15.40;99.90;;;;;;10465569;28;20227;-79
2024/04/05 07:35:50;;;;;;;0.50;0.50;;;15.50;99.90;;;;;;10475553;28;20208;-77
2024/04/05 07:40:52;;;;;;;0.50;0.50;;;15.80;99.90;;;;;;10490989;28;20216;-77
2024/04/05 07:45:57;;;;;;;0.43;0.43;;;16.10;99.90;;;;;;10492581;28;20196;-76
2024/04/05 07:50:59;;;;;;;0.40;0.40;;;16.30;99.90;;;;;;10479364;28;20224;-77
2024/04/05 07:56:03;;;;;;;0.50;0.50;;;16.50;99.90;;;;;;10476536;28;20197;-77
2024/04/05 08:01:07;;;;;;;0.50;0.50;;;16.70;99.90;;;;;;10478423;28;20221;-78
2024/04/05 08:06:10;;;;;;;0.40;0.40;;;16.70;99.90;;;;;;10482060;28;20196;-77
2024/04/05 08:11:12;;;;;;;0.50;0.50;;;16.80;99.90;;;;;;10489460;28;20226;-77
2024/04/05 08:16:16;;;;;;;0.40;0.40;;;16.90;99.90;;;;;;10469371;28;20197;-77
2024/04/05 08:21:18;;;;;;;0.57;0.57;;;17.00;99.90;;;;;;10497353;28;20223;-78
2024/04/05 08:26:21;;;;;;;0.40;0.40;;;17.10;99.90;;;;;;10471021;28;20204;-77
2024/04/05 08:31:25;;;;;;;0.47;0.47;;;17.30;99.80;;;;;;10488767;28;20224;-76
2024/04/05 08:36:28;;;;;;;0.50;0.50;;;17.40;99.50;;;;;;10490881;28;20200;-79
2024/04/05 08:41:31;;;;;;;0.50;0.50;;;17.50;99.90;;;;;;10476893;28;20216;-80
2024/04/05 08:46:35;;;;;;;0.50;0.50;;;17.70;98.20;;;;;;10479605;28;20212;-78
2024/04/05 08:51:40;;;;;;;0.40;0.40;;;18.00;98.20;;;;;;10492460;28;20232;-76
2024/04/05 08:56:48;;;;;;;0.50;0.50;;;18.20;97.50;;;;;;10487421;28;20201;-77
2024/04/05 09:01:54;;;;;;;0.50;0.50;;;18.30;98.30;;;;;;10458717;28;20206;-79
2024/04/05 09:06:57;;;;;;;0.50;0.50;;;18.40;98.50;;;;;;10490217;28;20209;-78
2024/04/05 09:12:02;;;;;;;0.50;0.50;;;18.50;98.80;;;;;;10490747;28;20583;-79
2024/04/05 09:17:13;;;;;;;0.50;0.50;;;18.50;99.20;;;;;;10491712;28;20201;-75
2024/04/05 09:22:19;;;;;;;0.60;0.60;;;18.60;98.80;;;;;;10476741;28;20573;-77
2024/04/05 09:27:22;;;;;;;0.60;0.60;;;18.70;98.40;;;;;;10476112;28;20204;-77
2024/04/05 09:32:26;;;;;;;0.40;0.40;;;18.90;97.70;;;;;;10479027;28;20224;-79
2024/04/05 09:37:29;;;;;;;0.50;0.50;;;19.10;98.00;;;;;;10477458;28;20227;-77
2024/04/05 09:42:32;;;;;;;0.70;0.70;;;19.30;97.90;;;;;;10482630;28;20250;-78
2024/04/05 09:47:37;;;;;;;0.50;0.50;;;19.40;97.70;;;;;;10489234;28;20216;-78
2024/04/05 09:52:43;;;;;;;0.50;0.50;;;19.60;97.20;;;;;;10480892;28;20763;-77
2024/04/05 09:57:46;;;;;;;0.60;0.60;;;20.00;95.60;;;;;;10482172;28;20220;-77
2024/04/05 10:02:53;;;;;;;0.70;0.70;;;20.30;95.60;;;;;;10470298;28;20189;-76
2024/04/05 10:07:56;;;;;;;0.60;0.60;;;20.60;95.10;;;;;;10473679;28;20232;-80
2024/04/05 10:12:58;;;;;;;0.50;0.50;;;20.90;94.80;;;;;;10466712;28;20251;-77
2024/04/05 10:18:02;;;;;;;0.60;0.60;;;20.80;91.00;;;;;;10480649;28;20224;-80
2024/04/05 10:23:04;;;;;;;0.70;0.70;;;20.70;92.50;;;;;;10468615;28;20637;-76
2024/04/05 10:28:09;;;;;;;0.60;0.60;;;20.50;90.90;;;;;;10462577;28;20225;-78
2024/04/05 10:33:17;;;;;;;0.67;0.67;;;20.50;91.90;;;;;;10458489;28;20598;-78
2024/04/05 10:38:20;;;;;;;0.60;0.60;;;20.40;92.00;;;;;;10469891;28;20282;-78
2024/04/05 10:43:22;;;;;;;0.60;0.60;;;20.30;90.90;;;;;;10491822;28;20326;-77
2024/04/05 10:48:26;;;;;;;0.70;0.70;;;20.40;90.90;;;;;;10478964;28;20220;-77
2024/04/05 10:53:29;;;;;;;0.80;0.80;;;20.60;91.00;;;;;;10481666;28;20216;-77
2024/04/05 10:58:32;;;;;;;0.53;0.53;;;20.90;91.60;;;;;;10478240;28;20228;-81
2024/04/05 11:03:36;;;;;;;0.80;0.80;;;21.00;90.70;;;;;;10488001;28;20275;-80
2024/04/05 11:08:38;;;;;;;1.10;1.10;;;21.20;91.20;;;;;;10480569;28;20220;-77
2024/04/05 11:13:41;;;;;;;0.80;0.80;;;21.40;87.80;;;;;;10480602;28;20228;-77
2024/04/05 11:18:45;;;;;;;0.90;0.90;;;21.60;88.00;;;;;;10485700;28;20228;-76
2024/04/05 11:23:48;;;;;;;0.80;0.80;;;21.80;86.50;;;;;;10481667;28;20269;-76
2024/04/05 11:28:50;;;;;;;0.90;0.90;;;22.00;86.80;;;;;;10450164;28;20282;-78
2024/04/05 11:33:55;;;;;;;0.60;0.60;;;22.00;84.00;;;;;;10483472;28;20701;-77
2024/04/05 11:38:57;;;;;;;1.00;1.00;;;22.10;83.30;;;;;;10459727;28;20274;-79
2024/04/05 11:44:00;;;;;;;0.70;0.70;;;22.10;82.70;;;;;;10455876;28;20190;-78
2024/04/05 11:49:04;;;;;;;0.60;0.60;;;22.00;83.50;;;;;;10466168;28;20572;-77
2024/04/05 11:54:07;;;;;;;0.80;0.80;;;21.90;83.40;;;;;;10485897;28;20710;-78
2024/04/05 11:59:09;;;;;;;0.60;0.60;;;21.80;83.60;;;;;;10482713;28;20232;-77
2024/04/05 12:04:13;;;;;;;0.50;0.50;;;21.70;84.20;;;;;;10478497;28;20185;-76
2024/04/05 12:09:16;;;;;;;0.70;0.70;;;21.60;84.10;;;;;;10481980;28;20242;-78
2024/04/05 12:14:18;;;;;;;0.60;0.60;;;21.60;84.60;;;;;;10467581;28;20220;-79
2024/04/05 12:19:22;;;;;;;0.70;0.70;;;21.40;84.20;;;;;;10479746;28;20697;-80
2024/04/05 12:24:25;;;;;;;0.60;0.60;;;21.60;84.50;;;;;;10497643;28;20201;-81
2024/04/05 12:29:27;;;;;;;0.40;0.40;;;21.60;85.70;;;;;;10476275;28;20691;-80
2024/04/05 12:34:31;;;;;;;0.70;0.70;;;21.80;84.10;;;;;;10478292;28;20224;-78
2024/04/05 12:39:33;;;;;;;0.60;0.60;;;22.00;84.80;;;;;;10475727;28;20275;-78
2024/04/05 12:44:36;;;;;;;0.70;0.70;;;22.00;87.00;;;;;;10488506;28;20225;-78
2024/04/05 12:49:40;;;;;;;0.60;0.60;;;22.10;82.60;;;;;;10473734;28;20228;-78
2024/04/05 12:54:43;;;;;;;0.50;0.50;;;22.10;83.00;;;;;;10483806;28;20224;-77
2024/04/05 12:59:45;;;;;;;0.60;0.60;;;22.10;84.00;;;;;;10484427;28;20282;-77
2024/04/05 13:04:53;;;;;;;0.50;0.50;;;22.10;80.00;;;;;;10488018;28;20208;-79
2024/04/05 13:09:55;;;;;;;0.30;0.30;;;22.10;79.90;;;;;;10489089;22;20225;-81
2024/04/05 13:14:57;;;;;;;0.60;0.60;;;21.90;80.10;;;;;;10498877;28;20217;-81
2024/04/05 13:20:01;;;;;;;0.57;0.57;;;21.70;77.90;;;;;;10502355;28;20221;-81
2024/04/05 13:25:04;;;;;;;0.50;0.50;;;21.60;77.10;;;;;;10494331;28;20217;-81
2024/04/05 13:30:08;;;;;;;0.50;0.50;;;21.50;79.50;;;;;;10494753;28;20736;-81
2024/04/05 13:35:12;;;;;;;0.60;0.60;;;21.40;80.50;;;;;;10492822;28;20267;-81
2024/04/05 13:40:14;;;;;;;0.70;0.70;;;21.20;82.50;;;;;;10486883;28;20277;-81
2024/04/05 13:45:17;;;;;;;0.50;0.50;;;21.00;80.80;;;;;;10486972;28;20219;-81
2024/04/05 13:50:21;;;;;;;0.67;0.67;;;20.90;80.40;;;;;;10491328;28;20728;-82
2024/04/05 13:55:23;;;;;;;0.50;0.50;;;20.80;80.20;;;;;;10488570;28;20254;-81
2024/04/05 14:00:27;;;;;;;0.63;0.63;;;20.90;79.70;;;;;;10497413;28;20222;-81
2024/04/05 14:05:31;;;;;;;0.60;0.60;;;21.00;80.80;;;;;;10490245;28;20208;-81
2024/04/05 14:10:34;;;;;;;0.50;0.50;;;21.10;85.00;;;;;;10472732;28;20709;-81
2024/04/05 14:15:37;;;;;;;0.60;0.60;;;21.10;82.50;;;;;;10496828;28;20223;-82
2024/04/05 14:20:41;;;;;;;0.77;0.77;;;20.90;85.40;;;;;;10480968;28;20225;-81
2024/04/05 14:25:44;;;;;;;0.77;0.77;;;20.80;87.10;;;;;;10491780;28;20621;-81
2024/04/05 14:30:55;;;;;;;0.50;0.50;;;20.70;85.30;;;;;;10490256;28;20759;-82
2024/04/05 14:36:00;;;;;;;0.60;0.60;;;20.60;87.70;;;;;;10478903;28;20200;-80
2024/04/05 14:41:08;;;;;;;0.60;0.60;;;20.60;85.20;;;;;;10490153;28;20220;-80
2024/04/05 14:46:10;;;;;;;0.70;0.70;;;20.60;85.30;;;;;;10488917;28;20203;-81
2024/04/05 14:51:14;;;;;;;0.50;0.50;;;20.60;85.20;;;;;;10494381;28;20282;-82
2024/04/05 14:56:16;;;;;;;0.50;0.50;;;20.60;82.70;;;;;;10493167;28;20257;-82
2024/04/05 15:01:19;;;;;;;0.60;0.60;;;20.70;82.00;;;;;;10474514;28;20807;-82
2024/04/05 15:06:22;;;;;;;0.60;0.60;;;20.80;83.50;;;;;;10487685;28;20201;-81
2024/04/05 15:11:26;;;;;;;0.60;0.60;;;20.80;80.80;;;;;;10498552;28;20216;-81
2024/04/05 15:16:29;;;;;;;0.60;0.60;;;20.80;84.30;;;;;;10496574;28;20200;-81
2024/04/05 15:21:33;;;;;;;0.70;0.70;;;20.80;82.70;;;;;;10498593;28;20221;-79
2024/04/05 15:26:35;;;;;;;0.70;0.70;;;20.70;81.80;;;;;;10505693;28;20763;-79
2024/04/05 15:31:38;;;;;;;0.50;0.50;;;20.70;83.30;;;;;;10504592;28;20282;-81
2024/04/05 15:36:42;;;;;;;0.80;0.80;;;20.60;83.60;;;;;;10482795;28;20521;-81
2024/04/05 15:41:44;;;;;;;0.60;0.60;;;20.50;86.80;;;;;;10489292;28;20217;-79
2024/04/05 15:46:47;;;;;;;0.60;0.60;;;20.30;86.70;;;;;;10479566;28;20208;-81
2024/04/05 15:51:51;;;;;;;0.70;0.70;;;20.30;86.70;;;;;;10488226;28;20591;-78
2024/04/05 15:56:53;;;;;;;0.70;0.70;;;20.30;88.50;;;;;;10478838;28;20201;-79
2024/04/05 16:01:56;;;;;;;0.60;0.60;;;20.30;88.90;;;;;;10485828;28;20216;-80
2024/04/05 16:06:59;;;;;;;0.90;0.90;;;20.40;89.20;;;;;;10490339;28;20229;-79
2024/04/05 16:12:02;;;;;;;0.77;0.77;;;20.40;90.10;;;;;;10488528;28;20232;-78
2024/04/05 16:17:04;;;;;;;0.70;0.70;;;20.30;90.20;;;;;;10495760;28;20208;-80
2024/04/05 16:22:08;;;;;;;0.50;0.50;;;20.30;90.80;;;;;;10500454;28;20277;-80
2024/04/05 16:27:10;;;;;;;0.33;0.33;;;20.10;91.40;;;;;;10492827;28;20675;-80
2024/04/05 16:32:13;;;;;;;0.70;0.70;;;20.00;92.10;;;;;;10490740;28;20289;-80
2024/04/05 16:37:17;;;;;;;0.67;0.67;;;19.90;91.90;;;;;;10493187;28;20197;-80
2024/04/05 16:42:19;;;;;;;0.60;0.60;;;19.80;92.50;;;;;;10491537;28;20225;-81
2024/04/05 16:47:22;;;;;;;0.60;0.60;;;19.70;93.50;;;;;;10490748;28;20200;-81
2024/04/05 16:52:25;;;;;;;0.70;0.70;;;19.50;94.30;;;;;;10484963;28;20305;-81
2024/04/05 16:57:28;;;;;;;0.70;0.70;;;19.40;94.70;;;;;;10491408;28;20200;-82
2024/04/05 17:02:41;;;;;;;0.60;0.60;;;19.30;94.80;;;;;;10495423;28;20217;-79
2024/04/05 17:07:46;;;;;;;0.70;0.70;;;19.20;95.40;;;;;;10489380;28;20274;-82
2024/04/05 17:12:52;;;;;;;0.70;0.70;;;19.00;95.70;;;;;;10499198;28;20367;-79
2024/04/05 17:17:55;;;;;;;1.17;1.17;;;18.90;96.10;;;;;;10489443;28;20211;-80
2024/04/05 17:22:59;;;;;;;0.80;0.80;;;18.80;95.10;;;;;;10492849;28;20188;-82
2024/04/05 17:28:01;;;;;;;0.83;0.83;;;18.80;95.60;;;;;;10476642;28;20230;-81
2024/04/05 17:33:04;;;;;;;0.90;0.90;;;18.80;95.70;;;;;;10483936;28;20220;-80
2024/04/05 17:38:08;;;;;;;0.70;0.70;;;18.80;95.90;;;;;;10495219;28;20867;-79
2024/04/05 17:43:10;;;;;;;0.60;0.60;;;18.80;96.10;;;;;;10487591;28;20567;-79
2024/04/05 17:48:15;;;;;;;0.80;0.80;;;18.70;96.10;;;;;;10484212;28;20225;-79
2024/04/05 17:53:19;;;;;;;0.80;0.80;;;18.70;96.10;;;;;;10484132;28;20212;-79
2024/04/05 17:58:22;;;;;;;1.00;1.00;;;18.70;95.40;;;;;;10490613;28;20213;-81
2024/04/05 18:03:25;;;;;;;0.77;0.77;;;18.70;95.20;;;;;;10485598;28;20205;-79
2024/04/05 18:08:29;;;;;;;0.60;0.60;;;18.70;94.90;;;;;;10491823;28;20712;-81
2024/04/05 18:13:32;;;;;;;0.80;0.80;;;18.60;94.90;;;;;;10501565;28;20246;-79
2024/04/05 18:18:34;;;;;;;0.50;0.50;;;18.50;94.90;;;;;;10492382;28;20220;-81
2024/04/05 18:23:38;;;;;;;0.90;0.90;;;18.40;94.70;;;;;;10497977;28;20209;-81
2024/04/05 18:28:41;;;;;;;0.90;0.90;;;18.50;94.30;;;;;;10499366;28;20243;-79
2024/04/05 18:33:43;;;;;;;0.70;0.70;;;18.50;94.20;;;;;;10482332;28;20217;-83
2024/04/05 18:38:51;;;;;;;0.80;0.80;;;18.50;94.30;;;;;;10494518;28;20223;-78
2024/04/05 18:43:56;;;;;;;0.70;0.70;;;18.50;93.40;;;;;;10472594;28;20195;-81
2024/04/05 18:49:00;;;;;;;0.50;0.50;;;18.50;93.40;;;;;;10469804;28;20232;-80
2024/04/05 18:54:05;;;;;;;0.50;0.50;;;18.60;92.00;;;;;;10489131;28;20216;-81
2024/04/05 18:59:12;;;;;;;0.70;0.70;;;18.70;91.60;;;;;;10481449;28;20228;-82
2024/04/05 19:04:15;;;;;;;0.60;0.60;;;18.70;91.60;;;;;;10493501;28;20246;-81
2024/04/05 19:09:19;;;;;;;0.50;0.50;;;18.70;91.70;;;;;;10502439;22;20767;-76
2024/04/05 19:14:21;;;;;;;0.70;0.70;;;18.60;91.60;;;;;;10483770;28;20701;-80
2024/04/05 19:19:24;;;;;;;0.60;0.60;;;18.60;91.50;;;;;;10471169;28;20220;-78
2024/04/05 19:24:29;;;;;;;0.70;0.70;;;18.50;91.50;;;;;;10485922;28;20196;-77
2024/04/05 19:29:32;;;;;;;0.70;0.70;;;18.50;91.40;;;;;;10479997;28;20503;-77
2024/04/05 19:34:35;;;;;;;0.60;0.60;;;18.50;91.00;;;;;;10497082;28;20270;-78
2024/04/05 19:39:39;;;;;;;1.60;1.60;;;18.50;91.20;;;;;;10486201;28;20596;-73
2024/04/05 19:44:42;;;;;;;0.90;0.90;;;18.40;91.50;;;;;;10487775;28;20735;-71
2024/04/05 19:49:44;;;;;;;1.10;1.10;;;18.20;91.60;;;;;;10487779;28;20224;-72
2024/04/05 19:54:48;;;;;;;0.90;0.90;;;18.10;91.70;;;;;;10468165;28;20224;-73
2024/04/05 19:59:50;;;;;;;0.77;0.77;;;18.00;91.90;;;;;;10480567;28;20616;-73
2024/04/05 20:04:52;;;;;;;0.83;0.83;;;17.90;92.40;;;;;;10492114;28;20197;-71
2024/04/05 20:09:56;;;;;;;1.30;1.30;;;17.80;92.20;;;;;;10491586;28;20297;-72
2024/04/05 20:14:59;;;;;;;1.40;1.40;;;17.70;91.60;;;;;;10482923;28;20747;-71
2024/04/05 20:20:02;;;;;;;1.20;1.20;;;17.70;91.70;;;;;;10446383;28;20236;-71
2024/04/05 20:25:07;;;;;;;1.20;1.20;;;17.70;91.80;;;;;;10469236;28;20198;-71
2024/04/05 20:35:30;;;;;;;1.00;1.00;;;17.70;91.70;;;;;;10480395;28;20216;-71
2024/04/05 20:40:33;;;;;;;1.10;1.10;;;17.70;91.70;;;;;;10474484;28;20220;-71
2024/04/05 20:45:36;;;;;;;1.10;1.10;;;17.70;91.80;;;;;;10476902;28;20201;-71
2024/04/05 20:50:38;;;;;;;0.93;0.93;;;17.60;91.70;;;;;;10483827;28;20220;-71
2024/04/05 20:55:42;;;;;;;1.20;1.20;;;17.60;91.90;;;;;;10478047;28;20293;-71
2024/04/05 21:00:44;;;;;;;0.90;0.90;;;17.60;92.10;;;;;;10483285;28;20224;-71
2024/04/05 21:05:47;;;;;;;1.30;1.30;;;17.50;92.40;;;;;;10480325;28;20259;-72
2024/04/05 21:10:50;;;;;;;1.03;1.03;;;17.50;92.30;;;;;;10486719;28;20228;-71
2024/04/05 21:15:53;;;;;;;1.20;1.20;;;17.50;91.90;;;;;;10472228;28;20217;-71
2024/04/05 21:20:55;;;;;;;0.90;0.90;;;17.50;92.10;;;;;;10479483;28;20220;-72
2024/04/05 21:26:01;;;;;;;1.53;1.53;;;17.50;92.00;;;;;;10479669;28;20800;-71
2024/04/05 21:31:03;;;;;;;0.80;0.80;;;17.40;91.90;;;;;;10486027;28;20232;-71
2024/04/05 21:36:08;;;;;;;0.80;0.80;;;17.40;92.30;;;;;;10482716;28;20224;-71
2024/04/05 21:41:13;;;;;;;0.60;0.60;;;17.30;92.10;;;;;;10479212;28;20239;-71
2024/04/05 21:46:15;;;;;;;0.50;0.50;;;17.30;92.00;;;;;;10479366;28;20566;-73
2024/04/05 21:51:18;;;;;;;0.80;0.80;;;17.30;91.90;;;;;;10479832;28;20690;-71
2024/04/05 21:56:21;;;;;;;0.70;0.70;;;17.30;92.00;;;;;;10479456;28;20712;-71
2024/04/05 22:01:25;;;;;;;0.53;0.53;;;17.20;92.10;;;;;;10478998;28;20225;-71
2024/04/05 22:06:27;;;;;;;0.60;0.60;;;17.20;92.00;;;;;;10480040;28;20266;-71
2024/04/05 22:11:31;;;;;;;0.80;0.80;;;17.20;92.20;;;;;;10488137;28;20278;-71
2024/04/05 22:16:33;;;;;;;0.70;0.70;;;17.10;92.50;;;;;;10478893;28;20223;-72
2024/04/05 22:21:36;;;;;;;0.50;0.50;;;17.00;92.80;;;;;;10472280;28;20220;-71
2024/04/05 22:26:39;;;;;;;6.53;6.13;;;16.90;92.90;;;;;;10471097;28;20201;-72
2024/04/05 22:31:42;;;;;;;0.50;0.50;;;16.80;92.90;;;;;;10461674;28;20275;-71
2024/04/05 22:36:44;;;;;;;0.83;0.83;;;16.80;93.10;;;;;;10459253;28;20302;-72
2024/04/05 22:41:48;;;;;;;0.97;0.97;;;16.70;93.10;;;;;;10442334;28;20694;-72
2024/04/05 22:46:50;;;;;;;0.90;0.90;;;16.60;93.10;;;;;;10456806;28;20202;-71
2024/04/05 22:51:52;;;;;;;0.70;0.70;;;16.60;93.20;;;;;;10453639;28;20209;-71
2024/04/05 22:56:56;;;;;;;0.90;0.90;;;16.50;93.30;;;;;;10450082;28;20260;-71
2024/04/05 23:01:58;;;;;;;0.87;0.87;;;16.40;93.50;;;;;;10450058;28;20267;-72
2024/04/05 23:07:01;;;;;;;0.90;0.90;;;16.30;93.40;;;;;;10470431;28;20196;-72
2024/04/05 23:12:06;;;;;;;0.60;0.60;;;16.30;93.80;;;;;;10456327;28;20229;-71
2024/04/05 23:17:08;;;;;;;0.60;0.60;;;16.20;93.70;;;;;;10449620;28;20213;-71
2024/04/05 23:22:10;;;;;;;0.60;0.60;;;16.20;93.60;;;;;;10449670;28;20221;-72
2024/04/05 23:27:14;;;;;;;0.60;0.60;;;16.20;93.60;;;;;;10449583;28;20189;-74
2024/04/05 23:32:16;;;;;;;0.60;0.60;;;16.20;93.60;;;;;;10449406;28;20734;-72
2024/04/05 23:37:19;;;;;;;0.80;0.80;;;16.20;93.90;;;;;;10443201;28;20229;-71
2024/04/05 23:42:23;;;;;;;0.80;0.80;;;16.20;93.90;;;;;;10449417;28;20283;-71
2024/04/05 23:47:26;;;;;;;0.83;0.83;;;16.10;93.80;;;;;;10449314;28;20667;-71
2024/04/05 23:52:28;;;;;;;0.60;0.60;;;16.00;93.90;;;;;;10448815;28;20221;-71
2024/04/05 23:57:32;;;;;;;0.60;0.60;;;16.00;94.10;;;;;;10448852;28;20283;-71
